sensor_id;sensor_type;location;lat;lon;timestamp;temperature;humidity
1728;DHT22;861;48.808;9.006;2022-08-21T00:01:29;18.80;99.60
1728;DHT22;861;48.808;9.006;2022-08-21T00:03:56;18.70;99.70
1728;DHT22;861;48.808;9.006;2022-08-21T00:06:24;18.70;99.80
1728;DHT22;861;48.808;9.006;2022-08-21T00:08:51;18.60;99.90
1728;DHT22;861;48.808;9.006;2022-08-21T00:11:18;18.60;99.90
1728;DHT22;861;48.808;9.006;2022-08-21T00:13:46;18.50;99.90
1728;DHT22;861;48.808;9.006;2022-08-21T00:16:12;18.50;99.90
1728;DHT22;861;48.808;9.006;2022-08-21T00:18:38;18.50;99.90
1728;DHT22;861;48.808;9.006;2022-08-21T00:21:05;18.40;99.90
1728;DHT22;861;48.808;9.006;2022-08-21T00:23:34;18.30;99.90
1728;DHT22;861;48.808;9.006;2022-08-21T00:26:01;18.30;99.90
1728;DHT22;861;48.808;9.006;2022-08-21T00:28:27;18.30;99.90
1728;DHT22;861;48.808;9.006;2022-08-21T00:30:53;18.20;99.90
1728;DHT22;861;48.808;9.006;2022-08-21T00:33:20;18.20;99.90
1728;DHT22;861;48.808;9.006;2022-08-21T00:35:46;18.20;99.90
1728;DHT22;861;48.808;9.006;2022-08-21T00:38:12;18.20;99.90
1728;DHT22;861;48.808;9.006;2022-08-21T00:40:55;18.20;99.90
1728;DHT22;861;48.808;9.006;2022-08-21T00:43:31;18.20;99.90
1728;DHT22;861;48.808;9.006;2022-08-21T00:46:02;18.20;99.90
1728;DHT22;861;48.808;9.006;2022-08-21T00:48:31;18.10;99.90
1728;DHT22;861;48.808;9.006;2022-08-21T00:51:06;18.10;99.90
1728;DHT22;861;48.808;9.006;2022-08-21T00:53:45;18.00;99.90
1728;DHT22;861;48.808;9.006;2022-08-21T00:56:13;17.90;99.90
1728;DHT22;861;48.808;9.006;2022-08-21T00:58:43;18.00;99.90
1728;DHT22;861;48.808;9.006;2022-08-21T01:01:09;18.00;99.90
1728;DHT22;861;48.808;9.006;2022-08-21T01:03:37;18.00;99.90
1728;DHT22;861;48.808;9.006;2022-08-21T01:06:07;18.10;99.90
1728;DHT22;861;48.808;9.006;2022-08-21T01:08:35;18.10;99.90
1728;DHT22;861;48.808;9.006;2022-08-21T01:11:04;18.00;99.90
1728;DHT22;861;48.808;9.006;2022-08-21T01:13:36;18.00;99.90
1728;DHT22;861;48.808;9.006;2022-08-21T01:16:13;17.90;99.90
1728;DHT22;861;48.808;9.006;2022-08-21T01:18:46;17.80;99.90
1728;DHT22;861;48.808;9.006;2022-08-21T01:21:24;17.80;99.90
1728;DHT22;861;48.808;9.006;2022-08-21T01:23:54;17.70;99.90
1728;DHT22;861;48.808;9.006;2022-08-21T01:26:29;17.70;99.90
1728;DHT22;861;48.808;9.006;2022-08-21T01:29:15;17.60;99.90
1728;DHT22;861;48.808;9.006;2022-08-21T01:32:10;17.60;99.90
1728;DHT22;861;48.808;9.006;2022-08-21T01:34:45;17.50;99.90
1728;DHT22;861;48.808;9.006;2022-08-21T01:37:17;17.50;99.90
1728;DHT22;861;48.808;9.006;2022-08-21T01:43:18;17.40;99.90
1728;DHT22;861;48.808;9.006;2022-08-21T01:45:44;17.30;99.90
1728;DHT22;861;48.808;9.006;2022-08-21T01:48:10;17.40;99.90
1728;DHT22;861;48.808;9.006;2022-08-21T01:50:37;17.40;99.90
1728;DHT22;861;48.808;9.006;2022-08-21T01:53:04;17.40;99.90
1728;DHT22;861;48.808;9.006;2022-08-21T01:55:30;17.40;99.90
1728;DHT22;861;48.808;9.006;2022-08-21T01:57:59;17.30;99.90
1728;DHT22;861;48.808;9.006;2022-08-21T02:00:26;17.20;99.90
1728;DHT22;861;48.808;9.006;2022-08-21T02:02:52;17.10;99.90
1728;DHT22;861;48.808;9.006;2022-08-21T02:05:20;17.10;99.90
1728;DHT22;861;48.808;9.006;2022-08-21T02:07:52;17.10;99.90
1728;DHT22;861;48.808;9.006;2022-08-21T02:10:27;17.10;99.90
1728;DHT22;861;48.808;9.006;2022-08-21T02:12:59;17.00;99.90
1728;DHT22;861;48.808;9.006;2022-08-21T02:15:28;16.80;99.90
1728;DHT22;861;48.808;9.006;2022-08-21T02:18:00;16.70;99.90
1728;DHT22;861;48.808;9.006;2022-08-21T02:20:36;16.70;99.90
1728;DHT22;861;48.808;9.006;2022-08-21T02:23:10;16.60;99.90
1728;DHT22;861;48.808;9.006;2022-08-21T02:25:40;16.60;99.90
1728;DHT22;861;48.808;9.006;2022-08-21T02:28:15;16.60;99.90
1728;DHT22;861;48.808;9.006;2022-08-21T02:30:46;16.70;99.90
1728;DHT22;861;48.808;9.006;2022-08-21T02:33:15;16.70;99.90
1728;DHT22;861;48.808;9.006;2022-08-21T02:35:46;16.70;99.90
1728;DHT22;861;48.808;9.006;2022-08-21T02:38:22;16.60;99.90
1728;DHT22;861;48.808;9.006;2022-08-21T02:40:55;16.40;99.90
1728;DHT22;861;48.808;9.006;2022-08-21T02:43:26;16.30;99.90
1728;DHT22;861;48.808;9.006;2022-08-21T02:45:57;16.30;99.90
1728;DHT22;861;48.808;9.006;2022-08-21T02:48:30;16.30;99.90
1728;DHT22;861;48.808;9.006;2022-08-21T02:51:06;16.30;99.90
1728;DHT22;861;48.808;9.006;2022-08-21T02:53:37;16.40;99.90
1728;DHT22;861;48.808;9.006;2022-08-21T02:56:08;16.50;99.90
1728;DHT22;861;48.808;9.006;2022-08-21T02:58:41;16.40;99.90
1728;DHT22;861;48.808;9.006;2022-08-21T03:01:12;16.40;99.90
1728;DHT22;861;48.808;9.006;2022-08-21T03:03:43;16.40;99.90
1728;DHT22;861;48.808;9.006;2022-08-21T03:06:15;16.30;99.90
1728;DHT22;861;48.808;9.006;2022-08-21T03:08:44;16.40;99.90
1728;DHT22;861;48.808;9.006;2022-08-21T03:11:12;16.40;99.90
1728;DHT22;861;48.808;9.006;2022-08-21T03:13:41;16.40;99.90
1728;DHT22;861;48.808;9.006;2022-08-21T03:16:08;16.30;99.90
1728;DHT22;861;48.808;9.006;2022-08-21T03:18:35;16.30;99.90
1728;DHT22;861;48.808;9.006;2022-08-21T03:21:03;16.30;99.90
1728;DHT22;861;48.808;9.006;2022-08-21T03:23:32;16.20;99.90
1728;DHT22;861;48.808;9.006;2022-08-21T03:25:58;16.10;99.90
1728;DHT22;861;48.808;9.006;2022-08-21T03:28:26;16.10;99.90
1728;DHT22;861;48.808;9.006;2022-08-21T03:30:52;16.10;99.90
1728;DHT22;861;48.808;9.006;2022-08-21T03:33:21;16.20;99.90
1728;DHT22;861;48.808;9.006;2022-08-21T03:36:05;16.10;99.90
1728;DHT22;861;48.808;9.006;2022-08-21T03:38:35;16.00;99.90
1728;DHT22;861;48.808;9.006;2022-08-21T03:41:05;15.90;99.90
1728;DHT22;861;48.808;9.006;2022-08-21T03:43:33;16.00;99.90
1728;DHT22;861;48.808;9.006;2022-08-21T03:46:04;15.90;99.90
1728;DHT22;861;48.808;9.006;2022-08-21T03:48:35;15.80;99.90
1728;DHT22;861;48.808;9.006;2022-08-21T03:51:03;15.90;99.90
1728;DHT22;861;48.808;9.006;2022-08-21T03:53:30;15.90;99.90
1728;DHT22;861;48.808;9.006;2022-08-21T03:55:57;15.90;99.90
1728;DHT22;861;48.808;9.006;2022-08-21T03:58:27;15.90;99.90
1728;DHT22;861;48.808;9.006;2022-08-21T04:00:59;15.90;99.90
1728;DHT22;861;48.808;9.006;2022-08-21T04:03:28;15.80;99.90
1728;DHT22;861;48.808;9.006;2022-08-21T04:05:54;15.80;99.90
1728;DHT22;861;48.808;9.006;2022-08-21T04:08:21;15.70;99.90
1728;DHT22;861;48.808;9.006;2022-08-21T04:10:52;15.70;99.90
1728;DHT22;861;48.808;9.006;2022-08-21T04:13:22;15.60;99.90
1728;DHT22;861;48.808;9.006;2022-08-21T04:15:49;15.60;99.90
1728;DHT22;861;48.808;9.006;2022-08-21T04:18:16;15.40;99.90
1728;DHT22;861;48.808;9.006;2022-08-21T04:20:48;15.30;99.90
1728;DHT22;861;48.808;9.006;2022-08-21T04:23:20;15.20;99.90
1728;DHT22;861;48.808;9.006;2022-08-21T04:25:48;15.20;99.90
1728;DHT22;861;48.808;9.006;2022-08-21T04:28:15;15.10;99.90
1728;DHT22;861;48.808;9.006;2022-08-21T04:30:41;15.20;99.90
1728;DHT22;861;48.808;9.006;2022-08-21T04:33:08;15.30;99.90
1728;DHT22;861;48.808;9.006;2022-08-21T04:35:35;15.30;99.90
1728;DHT22;861;48.808;9.006;2022-08-21T04:38:01;15.40;99.90
1728;DHT22;861;48.808;9.006;2022-08-21T04:40:28;15.40;99.90
1728;DHT22;861;48.808;9.006;2022-08-21T04:43:03;15.40;99.90
1728;DHT22;861;48.808;9.006;2022-08-21T04:45:43;15.40;99.90
1728;DHT22;861;48.808;9.006;2022-08-21T04:48:15;15.50;99.90
1728;DHT22;861;48.808;9.006;2022-08-21T04:53:39;15.20;99.90
1728;DHT22;861;48.808;9.006;2022-08-21T04:56:29;15.20;99.90
1728;DHT22;861;48.808;9.006;2022-08-21T04:59:10;15.20;99.90
1728;DHT22;861;48.808;9.006;2022-08-21T05:01:45;15.20;99.90
1728;DHT22;861;48.808;9.006;2022-08-21T05:04:18;15.20;99.90
1728;DHT22;861;48.808;9.006;2022-08-21T05:07:02;15.20;99.90
1728;DHT22;861;48.808;9.006;2022-08-21T05:09:34;15.30;99.90
1728;DHT22;861;48.808;9.006;2022-08-21T05:12:02;15.30;99.90
1728;DHT22;861;48.808;9.006;2022-08-21T05:14:29;15.20;99.90
1728;DHT22;861;48.808;9.006;2022-08-21T05:16:55;15.30;99.90
1728;DHT22;861;48.808;9.006;2022-08-21T05:19:22;15.40;99.90
1728;DHT22;861;48.808;9.006;2022-08-21T05:21:49;15.50;99.90
1728;DHT22;861;48.808;9.006;2022-08-21T05:24:15;15.50;99.90
1728;DHT22;861;48.808;9.006;2022-08-21T05:26:44;15.40;99.90
1728;DHT22;861;48.808;9.006;2022-08-21T05:29:13;15.40;99.90
1728;DHT22;861;48.808;9.006;2022-08-21T05:31:41;15.40;99.90
1728;DHT22;861;48.808;9.006;2022-08-21T05:36:41;15.50;99.90
1728;DHT22;861;48.808;9.006;2022-08-21T05:39:07;15.60;99.90
1728;DHT22;861;48.808;9.006;2022-08-21T05:41:33;15.50;99.90
1728;DHT22;861;48.808;9.006;2022-08-21T05:43:59;15.60;99.90
1728;DHT22;861;48.808;9.006;2022-08-21T05:46:26;15.70;99.90
1728;DHT22;861;48.808;9.006;2022-08-21T05:48:52;15.80;99.90
1728;DHT22;861;48.808;9.006;2022-08-21T05:51:18;15.90;99.90
1728;DHT22;861;48.808;9.006;2022-08-21T05:53:45;15.90;99.90
1728;DHT22;861;48.808;9.006;2022-08-21T05:56:13;15.90;99.90
1728;DHT22;861;48.808;9.006;2022-08-21T05:58:41;16.00;99.90
1728;DHT22;861;48.808;9.006;2022-08-21T06:01:09;16.10;99.90
1728;DHT22;861;48.808;9.006;2022-08-21T06:03:39;16.20;99.90
1728;DHT22;861;48.808;9.006;2022-08-21T06:06:07;16.40;99.90
1728;DHT22;861;48.808;9.006;2022-08-21T06:08:33;16.40;99.90
1728;DHT22;861;48.808;9.006;2022-08-21T06:11:03;16.50;99.90
1728;DHT22;861;48.808;9.006;2022-08-21T06:13:32;16.60;99.90
1728;DHT22;861;48.808;9.006;2022-08-21T06:16:09;16.70;99.90
1728;DHT22;861;48.808;9.006;2022-08-21T06:18:40;16.80;99.90
1728;DHT22;861;48.808;9.006;2022-08-21T06:21:08;16.80;99.90
1728;DHT22;861;48.808;9.006;2022-08-21T06:23:35;16.90;99.90
1728;DHT22;861;48.808;9.006;2022-08-21T06:26:04;17.30;99.90
1728;DHT22;861;48.808;9.006;2022-08-21T06:28:33;17.20;99.90
1728;DHT22;861;48.808;9.006;2022-08-21T06:31:19;17.40;99.90
1728;DHT22;861;48.808;9.006;2022-08-21T06:33:49;17.50;99.90
1728;DHT22;861;48.808;9.006;2022-08-21T06:36:17;17.70;99.90
1728;DHT22;861;48.808;9.006;2022-08-21T06:38:45;17.70;99.90
1728;DHT22;861;48.808;9.006;2022-08-21T06:41:11;17.90;99.90
1728;DHT22;861;48.808;9.006;2022-08-21T06:43:38;18.00;99.90
1728;DHT22;861;48.808;9.006;2022-08-21T06:46:04;18.30;99.90
1728;DHT22;861;48.808;9.006;2022-08-21T06:48:30;18.50;99.90
1728;DHT22;861;48.808;9.006;2022-08-21T06:51:00;18.90;99.90
1728;DHT22;861;48.808;9.006;2022-08-21T06:53:27;18.90;99.90
1728;DHT22;861;48.808;9.006;2022-08-21T06:55:53;19.10;99.90
1728;DHT22;861;48.808;9.006;2022-08-21T06:58:20;19.30;99.90
1728;DHT22;861;48.808;9.006;2022-08-21T07:00:49;19.50;99.90
1728;DHT22;861;48.808;9.006;2022-08-21T07:03:24;19.60;99.90
1728;DHT22;861;48.808;9.006;2022-08-21T07:06:17;19.80;99.90
1728;DHT22;861;48.808;9.006;2022-08-21T07:08:43;19.80;99.90
1728;DHT22;861;48.808;9.006;2022-08-21T07:11:18;20.00;99.90
1728;DHT22;861;48.808;9.006;2022-08-21T07:13:48;20.10;99.90
1728;DHT22;861;48.808;9.006;2022-08-21T07:16:17;20.30;99.90
1728;DHT22;861;48.808;9.006;2022-08-21T07:18:43;20.40;99.90
1728;DHT22;861;48.808;9.006;2022-08-21T07:21:10;20.60;99.90
1728;DHT22;861;48.808;9.006;2022-08-21T07:23:42;20.60;99.90
1728;DHT22;861;48.808;9.006;2022-08-21T07:26:17;20.80;99.90
1728;DHT22;861;48.808;9.006;2022-08-21T07:28:48;20.80;99.90
1728;DHT22;861;48.808;9.006;2022-08-21T07:31:18;20.80;99.90
1728;DHT22;861;48.808;9.006;2022-08-21T07:33:47;20.80;99.90
1728;DHT22;861;48.808;9.006;2022-08-21T07:36:14;20.90;99.90
1728;DHT22;861;48.808;9.006;2022-08-21T07:38:41;20.90;99.90
1728;DHT22;861;48.808;9.006;2022-08-21T07:41:17;20.90;99.90
1728;DHT22;861;48.808;9.006;2022-08-21T07:43:47;21.00;99.90
1728;DHT22;861;48.808;9.006;2022-08-21T07:46:14;21.10;99.90
1728;DHT22;861;48.808;9.006;2022-08-21T07:48:42;21.30;99.90
1728;DHT22;861;48.808;9.006;2022-08-21T07:51:16;21.40;99.90
1728;DHT22;861;48.808;9.006;2022-08-21T07:53:50;21.70;99.90
1728;DHT22;861;48.808;9.006;2022-08-21T07:56:20;21.90;99.90
1728;DHT22;861;48.808;9.006;2022-08-21T07:58:47;22.00;99.90
1728;DHT22;861;48.808;9.006;2022-08-21T08:01:14;22.10;99.90
1728;DHT22;861;48.808;9.006;2022-08-21T08:03:41;22.20;99.90
1728;DHT22;861;48.808;9.006;2022-08-21T08:06:08;22.40;99.90
1728;DHT22;861;48.808;9.006;2022-08-21T08:08:39;22.60;98.10
1728;DHT22;861;48.808;9.006;2022-08-21T08:11:08;22.70;97.70
1728;DHT22;861;48.808;9.006;2022-08-21T08:13:48;22.80;98.40
1728;DHT22;861;48.808;9.006;2022-08-21T08:16:18;22.90;98.50
1728;DHT22;861;48.808;9.006;2022-08-21T08:18:45;23.00;97.90
1728;DHT22;861;48.808;9.006;2022-08-21T08:21:14;23.20;96.90
1728;DHT22;861;48.808;9.006;2022-08-21T08:23:41;23.20;96.50
1728;DHT22;861;48.808;9.006;2022-08-21T08:26:07;23.20;95.90
1728;DHT22;861;48.808;9.006;2022-08-21T08:28:34;23.40;95.40
1728;DHT22;861;48.808;9.006;2022-08-21T08:31:01;23.40;96.00
1728;DHT22;861;48.808;9.006;2022-08-21T08:33:28;23.50;96.10
1728;DHT22;861;48.808;9.006;2022-08-21T08:35:55;23.50;95.40
1728;DHT22;861;48.808;9.006;2022-08-21T08:38:24;23.60;95.20
1728;DHT22;861;48.808;9.006;2022-08-21T08:41:21;23.70;94.50
1728;DHT22;861;48.808;9.006;2022-08-21T08:44:01;23.80;93.80
1728;DHT22;861;48.808;9.006;2022-08-21T08:46:47;23.90;93.40
1728;DHT22;861;48.808;9.006;2022-08-21T08:49:41;23.90;92.10
1728;DHT22;861;48.808;9.006;2022-08-21T08:52:30;24.00;92.10
1728;DHT22;861;48.808;9.006;2022-08-21T08:55:12;24.00;91.20
1728;DHT22;861;48.808;9.006;2022-08-21T08:57:48;24.40;91.90
1728;DHT22;861;48.808;9.006;2022-08-21T09:00:21;24.40;91.30
1728;DHT22;861;48.808;9.006;2022-08-21T09:02:55;24.50;91.50
1728;DHT22;861;48.808;9.006;2022-08-21T09:05:40;24.60;90.50
1728;DHT22;861;48.808;9.006;2022-08-21T09:21:40;25.70;85.40
1728;DHT22;861;48.808;9.006;2022-08-21T09:24:47;25.60;86.60
1728;DHT22;861;48.808;9.006;2022-08-21T09:27:22;25.80;96.60
1728;DHT22;861;48.808;9.006;2022-08-21T09:29:53;25.90;83.40
1728;DHT22;861;48.808;9.006;2022-08-21T09:32:30;26.00;85.70
1728;DHT22;861;48.808;9.006;2022-08-21T09:35:20;26.20;83.30
1728;DHT22;861;48.808;9.006;2022-08-21T09:40:45;26.30;84.40
1728;DHT22;861;48.808;9.006;2022-08-21T09:43:21;26.50;78.30
1728;DHT22;861;48.808;9.006;2022-08-21T09:48:53;26.70;81.20
1728;DHT22;861;48.808;9.006;2022-08-21T09:51:30;26.80;78.20
1728;DHT22;861;48.808;9.006;2022-08-21T09:54:18;26.60;78.80
1728;DHT22;861;48.808;9.006;2022-08-21T10:02:40;26.90;75.80
1728;DHT22;861;48.808;9.006;2022-08-21T10:05:27;26.80;77.60
1728;DHT22;861;48.808;9.006;2022-08-21T10:07:53;26.50;78.20
1728;DHT22;861;48.808;9.006;2022-08-21T10:25:23;28.10;66.90
1728;DHT22;861;48.808;9.006;2022-08-21T10:28:29;27.90;68.80
1728;DHT22;861;48.808;9.006;2022-08-21T10:45:15;27.70;64.70
1728;DHT22;861;48.808;9.006;2022-08-21T10:48:02;27.60;67.20
1728;DHT22;861;48.808;9.006;2022-08-21T11:08:10;27.50;65.60
1728;DHT22;861;48.808;9.006;2022-08-21T11:11:13;27.40;66.80
1728;DHT22;861;48.808;9.006;2022-08-21T11:14:00;27.00;67.90
1728;DHT22;861;48.808;9.006;2022-08-21T11:17:09;26.80;68.40
1728;DHT22;861;48.808;9.006;2022-08-21T11:19:45;27.00;71.80
1728;DHT22;861;48.808;9.006;2022-08-21T11:22:49;27.60;69.30
1728;DHT22;861;48.808;9.006;2022-08-21T11:49:33;31.00;58.90
1728;DHT22;861;48.808;9.006;2022-08-21T11:55:52;30.50;57.60
1728;DHT22;861;48.808;9.006;2022-08-21T11:58:41;29.80;59.20
1728;DHT22;861;48.808;9.006;2022-08-21T12:04:04;29.20;60.30
1728;DHT22;861;48.808;9.006;2022-08-21T12:06:42;29.20;60.30
1728;DHT22;861;48.808;9.006;2022-08-21T12:09:35;29.30;58.40
1728;DHT22;861;48.808;9.006;2022-08-21T12:12:29;28.90;58.00
1728;DHT22;861;48.808;9.006;2022-08-21T12:18:07;28.70;61.80
1728;DHT22;861;48.808;9.006;2022-08-21T12:21:25;29.40;61.40
1728;DHT22;861;48.808;9.006;2022-08-21T12:24:18;30.10;58.90
1728;DHT22;861;48.808;9.006;2022-08-21T12:49:37;30.60;53.50
1728;DHT22;861;48.808;9.006;2022-08-21T12:52:56;30.50;53.80
1728;DHT22;861;48.808;9.006;2022-08-21T12:55:35;30.00;54.40
1728;DHT22;861;48.808;9.006;2022-08-21T12:58:22;30.10;55.00
1728;DHT22;861;48.808;9.006;2022-08-21T13:00:58;30.30;55.80
1728;DHT22;861;48.808;9.006;2022-08-21T13:03:36;30.60;54.80
1728;DHT22;861;48.808;9.006;2022-08-21T13:06:05;30.50;53.60
1728;DHT22;861;48.808;9.006;2022-08-21T13:08:38;30.20;54.20
1728;DHT22;861;48.808;9.006;2022-08-21T13:11:06;30.40;55.40
1728;DHT22;861;48.808;9.006;2022-08-21T13:13:33;30.60;54.80
1728;DHT22;861;48.808;9.006;2022-08-21T13:29:33;32.00;49.60
1728;DHT22;861;48.808;9.006;2022-08-21T13:32:05;31.80;50.00
1728;DHT22;861;48.808;9.006;2022-08-21T13:34:38;31.70;50.30
1728;DHT22;861;48.808;9.006;2022-08-21T14:43:56;32.10;44.40
1728;DHT22;861;48.808;9.006;2022-08-21T14:46:28;32.10;45.40
1728;DHT22;861;48.808;9.006;2022-08-21T14:53:51;32.80;44.10
1728;DHT22;861;48.808;9.006;2022-08-21T14:56:18;32.50;43.20
1728;DHT22;861;48.808;9.006;2022-08-21T14:58:49;32.60;44.30
1728;DHT22;861;48.808;9.006;2022-08-21T16:31:32;32.10;42.60
1728;DHT22;861;48.808;9.006;2022-08-21T16:34:01;31.90;43.90
1728;DHT22;861;48.808;9.006;2022-08-21T16:36:28;31.60;44.50
1728;DHT22;861;48.808;9.006;2022-08-21T16:38:57;31.50;45.20
1728;DHT22;861;48.808;9.006;2022-08-21T16:41:33;31.30;44.90
1728;DHT22;861;48.808;9.006;2022-08-21T16:44:02;31.20;44.90
1728;DHT22;861;48.808;9.006;2022-08-21T16:46:36;31.30;45.30
1728;DHT22;861;48.808;9.006;2022-08-21T16:49:06;31.20;46.00
1728;DHT22;861;48.808;9.006;2022-08-21T16:51:33;31.20;45.10
1728;DHT22;861;48.808;9.006;2022-08-21T16:54:00;31.10;45.00
1728;DHT22;861;48.808;9.006;2022-08-21T16:56:28;31.00;44.60
1728;DHT22;861;48.808;9.006;2022-08-21T16:59:00;30.90;45.20
1728;DHT22;861;48.808;9.006;2022-08-21T17:01:33;30.90;45.20
1728;DHT22;861;48.808;9.006;2022-08-21T17:04:02;30.80;45.80
1728;DHT22;861;48.808;9.006;2022-08-21T17:06:28;30.80;45.00
1728;DHT22;861;48.808;9.006;2022-08-21T17:08:56;30.80;45.40
1728;DHT22;861;48.808;9.006;2022-08-21T17:11:38;30.90;45.90
1728;DHT22;861;48.808;9.006;2022-08-21T17:14:18;31.00;45.50
1728;DHT22;861;48.808;9.006;2022-08-21T17:16:53;30.90;45.60
1728;DHT22;861;48.808;9.006;2022-08-21T17:19:22;30.80;46.10
1728;DHT22;861;48.808;9.006;2022-08-21T17:21:49;30.70;46.10
1728;DHT22;861;48.808;9.006;2022-08-21T17:24:15;30.70;45.40
1728;DHT22;861;48.808;9.006;2022-08-21T17:26:44;30.60;46.30
1728;DHT22;861;48.808;9.006;2022-08-21T17:29:13;30.40;46.30
1728;DHT22;861;48.808;9.006;2022-08-21T17:31:50;30.20;46.90
1728;DHT22;861;48.808;9.006;2022-08-21T17:34:22;30.00;47.30
1728;DHT22;861;48.808;9.006;2022-08-21T17:36:50;29.70;47.30
1728;DHT22;861;48.808;9.006;2022-08-21T17:39:19;29.50;48.00
1728;DHT22;861;48.808;9.006;2022-08-21T17:41:46;29.30;48.70
1728;DHT22;861;48.808;9.006;2022-08-21T17:44:17;29.10;48.80
1728;DHT22;861;48.808;9.006;2022-08-21T17:46:46;28.90;49.40
1728;DHT22;861;48.808;9.006;2022-08-21T17:49:13;28.70;50.50
1728;DHT22;861;48.808;9.006;2022-08-21T17:51:41;28.60;49.90
1728;DHT22;861;48.808;9.006;2022-08-21T17:54:07;28.40;50.40
1728;DHT22;861;48.808;9.006;2022-08-21T17:56:38;28.30;51.00
1728;DHT22;861;48.808;9.006;2022-08-21T17:59:08;28.10;50.90
1728;DHT22;861;48.808;9.006;2022-08-21T18:01:45;28.10;51.40
1728;DHT22;861;48.808;9.006;2022-08-21T18:04:14;28.00;51.50
1728;DHT22;861;48.808;9.006;2022-08-21T18:06:42;27.80;52.00
1728;DHT22;861;48.808;9.006;2022-08-21T18:09:11;27.70;52.30
1728;DHT22;861;48.808;9.006;2022-08-21T18:11:41;27.50;53.20
1728;DHT22;861;48.808;9.006;2022-08-21T18:14:10;27.40;52.80
1728;DHT22;861;48.808;9.006;2022-08-21T18:16:41;27.30;52.90
1728;DHT22;861;48.808;9.006;2022-08-21T18:19:11;27.10;53.50
1728;DHT22;861;48.808;9.006;2022-08-21T18:21:40;26.90;53.30
1728;DHT22;861;48.808;9.006;2022-08-21T18:24:15;26.90;53.50
1728;DHT22;861;48.808;9.006;2022-08-21T18:26:46;26.80;53.80
1728;DHT22;861;48.808;9.006;2022-08-21T18:29:19;26.60;52.80
1728;DHT22;861;48.808;9.006;2022-08-21T18:31:48;26.60;54.00
1728;DHT22;861;48.808;9.006;2022-08-21T18:34:33;26.40;53.10
1728;DHT22;861;48.808;9.006;2022-08-21T18:37:07;26.40;52.90
1728;DHT22;861;48.808;9.006;2022-08-21T18:39:36;26.30;53.40
1728;DHT22;861;48.808;9.006;2022-08-21T18:42:10;26.20;53.90
1728;DHT22;861;48.808;9.006;2022-08-21T18:44:45;26.10;54.00
1728;DHT22;861;48.808;9.006;2022-08-21T18:47:24;26.00;53.70
1728;DHT22;861;48.808;9.006;2022-08-21T18:49:58;25.90;54.20
1728;DHT22;861;48.808;9.006;2022-08-21T18:52:24;25.80;54.70
1728;DHT22;861;48.808;9.006;2022-08-21T18:54:51;25.80;54.90
1728;DHT22;861;48.808;9.006;2022-08-21T18:57:17;25.70;53.90
1728;DHT22;861;48.808;9.006;2022-08-21T18:59:49;25.60;54.50
1728;DHT22;861;48.808;9.006;2022-08-21T19:02:15;25.50;54.10
1728;DHT22;861;48.808;9.006;2022-08-21T19:04:42;25.50;54.70
1728;DHT22;861;48.808;9.006;2022-08-21T19:07:08;25.40;55.20
1728;DHT22;861;48.808;9.006;2022-08-21T19:09:35;25.20;55.30
1728;DHT22;861;48.808;9.006;2022-08-21T19:12:01;25.20;56.50
1728;DHT22;861;48.808;9.006;2022-08-21T19:14:29;25.10;56.70
1728;DHT22;861;48.808;9.006;2022-08-21T19:16:55;25.00;56.00
1728;DHT22;861;48.808;9.006;2022-08-21T19:19:22;24.90;55.60
1728;DHT22;861;48.808;9.006;2022-08-21T19:21:49;24.90;56.30
1728;DHT22;861;48.808;9.006;2022-08-21T19:24:16;24.90;57.00
1728;DHT22;861;48.808;9.006;2022-08-21T19:26:43;24.80;56.60
1728;DHT22;861;48.808;9.006;2022-08-21T19:29:15;24.70;57.00
1728;DHT22;861;48.808;9.006;2022-08-21T19:31:48;24.60;56.90
1728;DHT22;861;48.808;9.006;2022-08-21T19:34:20;24.40;57.60
1728;DHT22;861;48.808;9.006;2022-08-21T19:36:52;24.40;58.20
1728;DHT22;861;48.808;9.006;2022-08-21T19:39:22;24.30;58.90
1728;DHT22;861;48.808;9.006;2022-08-21T19:41:56;24.30;59.00
1728;DHT22;861;48.808;9.006;2022-08-21T19:44:28;24.10;58.90
1728;DHT22;861;48.808;9.006;2022-08-21T19:46:58;24.10;58.90
1728;DHT22;861;48.808;9.006;2022-08-21T19:49:33;24.10;59.20
1728;DHT22;861;48.808;9.006;2022-08-21T19:52:01;24.10;59.90
1728;DHT22;861;48.808;9.006;2022-08-21T19:54:32;24.10;59.90
1728;DHT22;861;48.808;9.006;2022-08-21T19:57:04;24.10;61.60
1728;DHT22;861;48.808;9.006;2022-08-21T19:59:34;23.90;59.70
1728;DHT22;861;48.808;9.006;2022-08-21T20:02:04;23.70;59.40
1728;DHT22;861;48.808;9.006;2022-08-21T20:04:36;23.60;59.60
1728;DHT22;861;48.808;9.006;2022-08-21T20:07:03;23.40;60.60
1728;DHT22;861;48.808;9.006;2022-08-21T20:09:30;23.30;60.70
1728;DHT22;861;48.808;9.006;2022-08-21T20:12:05;23.20;61.30
1728;DHT22;861;48.808;9.006;2022-08-21T20:14:40;23.20;61.20
1728;DHT22;861;48.808;9.006;2022-08-21T20:17:16;23.00;61.50
1728;DHT22;861;48.808;9.006;2022-08-21T20:19:46;23.00;61.70
1728;DHT22;861;48.808;9.006;2022-08-21T20:22:16;22.80;61.50
1728;DHT22;861;48.808;9.006;2022-08-21T20:24:42;22.60;62.50
1728;DHT22;861;48.808;9.006;2022-08-21T20:27:24;22.40;63.60
1728;DHT22;861;48.808;9.006;2022-08-21T20:29:52;22.20;64.80
1728;DHT22;861;48.808;9.006;2022-08-21T20:32:18;22.30;65.60
1728;DHT22;861;48.808;9.006;2022-08-21T20:34:45;22.20;66.50
1728;DHT22;861;48.808;9.006;2022-08-21T20:37:11;22.30;67.30
1728;DHT22;861;48.808;9.006;2022-08-21T20:39:37;22.30;66.20
1728;DHT22;861;48.808;9.006;2022-08-21T20:42:05;22.30;65.50
1728;DHT22;861;48.808;9.006;2022-08-21T20:44:32;22.10;65.20
1728;DHT22;861;48.808;9.006;2022-08-21T20:46:59;22.10;64.80
1728;DHT22;861;48.808;9.006;2022-08-21T20:49:40;22.10;65.30
1728;DHT22;861;48.808;9.006;2022-08-21T20:52:17;22.10;66.60
1728;DHT22;861;48.808;9.006;2022-08-21T20:55:18;21.90;67.50
1728;DHT22;861;48.808;9.006;2022-08-21T20:58:10;21.90;68.70
1728;DHT22;861;48.808;9.006;2022-08-21T21:00:59;21.80;67.60
1728;DHT22;861;48.808;9.006;2022-08-21T21:03:42;21.80;67.60
1728;DHT22;861;48.808;9.006;2022-08-21T21:06:24;21.80;68.60
1728;DHT22;861;48.808;9.006;2022-08-21T21:09:14;21.80;68.70
1728;DHT22;861;48.808;9.006;2022-08-21T21:12:14;21.80;69.60
1728;DHT22;861;48.808;9.006;2022-08-21T21:14:55;21.70;69.80
1728;DHT22;861;48.808;9.006;2022-08-21T21:17:44;21.50;70.50
1728;DHT22;861;48.808;9.006;2022-08-21T21:20:32;21.60;70.00
1728;DHT22;861;48.808;9.006;2022-08-21T21:23:26;21.50;70.10
1728;DHT22;861;48.808;9.006;2022-08-21T21:32:03;21.00;71.10
1728;DHT22;861;48.808;9.006;2022-08-21T22:00:46;20.10;75.70
1728;DHT22;861;48.808;9.006;2022-08-21T22:14:21;20.00;75.40
1728;DHT22;861;48.808;9.006;2022-08-21T22:20:09;20.00;76.30
1728;DHT22;861;48.808;9.006;2022-08-21T22:22:50;19.90;77.20
1728;DHT22;861;48.808;9.006;2022-08-21T22:25:27;19.80;78.50
1728;DHT22;861;48.808;9.006;2022-08-21T22:28:14;19.80;78.50
1728;DHT22;861;48.808;9.006;2022-08-21T22:31:12;19.70;78.70
1728;DHT22;861;48.808;9.006;2022-08-21T22:37:09;19.70;78.60
1728;DHT22;861;48.808;9.006;2022-08-21T22:39:43;19.80;78.80
1728;DHT22;861;48.808;9.006;2022-08-21T22:42:25;19.90;79.40
1728;DHT22;861;48.808;9.006;2022-08-21T22:44:59;19.90;79.20
1728;DHT22;861;48.808;9.006;2022-08-21T22:47:44;19.80;79.20
1728;DHT22;861;48.808;9.006;2022-08-21T22:50:29;19.80;79.40
1728;DHT22;861;48.808;9.006;2022-08-21T22:53:05;20.00;79.50
1728;DHT22;861;48.808;9.006;2022-08-21T22:55:43;19.90;79.60